Terminal Aerodrome Forecast
Issued by NWS Blacksburg, VA

Home | Current Version | Previous Version | Text Only | Print | Product List | Glossary On
Versions: 1 2 3 4 5 6 7 8 9 10 11 12 13 14 15 16 17 18 19 20 21 22 23 24 25 26 27 28 29 30 31 32 33 34 35 36 37 38
000
FTUS41 KRNK 151813 AAA
TAFROA
TAF AMD
KROA 151813Z 1518/1618 VRB05KT P6SM FEW150
     FM151900 20009KT P6SM FEW150
     FM152300 19007KT P6SM FEW150
     FM160400 22005KT P6SM FEW250
     FM161500 25010G17KT P6SM SCT150=

USA.gov is the U.S. government's official web portal to all federal, state and local government web resources and services.